Milton, Louisiana
Current Conditions -  °F | °C
As of 12:10 AM on Friday 31 Oct 2014 (Local Time) from KIYA Reporting Station
Clear Clear  
Wind Chill: 49°   Ceiling: Unl
Heat Index: 49°   Visibility: 10mi
Dew Point: 48°   Wind: 0mph
Humidity: 94%   Direction: NA
Pressure: 30.08"   Gusts: NA
Location:  30.1°N, 92.08°W
Report Text: KIYA 310510Z AUTO 00000KT 10SM CLR 10/09 A3008 RMK AO2 T00970087
Loading
Personal Weather Stations






























Interactive Weather Map
Tropical Storm Tracking
New forecast layout! Learn more

10-Day Weather Forecast

Advertisements
Track Severe Weather on mobile